Аэропорт: Кольцово. Екатеринбург

ICAO: USSS

METAR:
2024-04-22 22:30:00
USSS 222230Z 07005MPS CAVOK 08/M03 Q1028 R08R/010060 NOSIG RMK QFE750/1001
TAF:
2024-04-22 19:51:00
TAF USSS 221951Z 2221/2321 09003G13MPS 9999 BKN040 
  BECMG 2222/2301 6000 -SHRA BKN020CB